Time;durP1;ratioP1;P1;durP2;ratioP2;P2;SDS_P1;SDS_P2;PMS_P1;PMS_P2;Temp;Humidity;BMP_temperature;BMP_pressure;BME280_temperature;BME280_humidity;BME280_pressure;Samples;Min_cycle;Max_cycle;Signal;HPM_P1;HPM_P2
2021/06/03 00:00:22;;;;;;;3.50;3.20;;;22.70;94.90;;;;;;5039526;28;20954;-73
2021/06/03 00:02:49;;;;;;;4.97;3.90;;;22.60;94.40;;;;;;5033677;28;20484;-72
2021/06/03 00:05:18;;;;;;;2.90;2.70;;;22.50;94.70;;;;;;5024222;28;21430;-71
2021/06/03 00:07:44;;;;;;;3.37;2.70;;;22.50;94.20;;;;;;5028679;28;20533;-72
2021/06/03 00:10:12;;;;;;;2.70;2.50;;;22.60;94.10;;;;;;5029452;28;20518;-72
2021/06/03 00:12:41;;;;;;;5.83;2.70;;;22.50;94.50;;;;;;5037754;28;20574;-72
2021/06/03 00:15:10;;;;;;;3.27;2.83;;;22.50;94.20;;;;;;5034081;28;20534;-71
2021/06/03 00:17:36;;;;;;;3.20;2.90;;;22.50;94.00;;;;;;5036321;28;20536;-71
2021/06/03 00:20:05;;;;;;;4.07;2.80;;;22.40;95.00;;;;;;5038922;28;20475;-72
2021/06/03 00:22:32;;;;;;;2.93;2.63;;;22.40;95.10;;;;;;5040968;28;20907;-73
2021/06/03 00:24:58;;;;;;;2.43;2.23;;;22.30;94.50;;;;;;5032013;28;20477;-71
2021/06/03 00:27:25;;;;;;;4.80;3.17;;;22.20;94.90;;;;;;5038302;28;20494;-71
2021/06/03 00:29:53;;;;;;;3.03;2.73;;;22.50;94.90;;;;;;5044039;28;20495;-72
2021/06/03 00:32:20;;;;;;;4.73;2.93;;;22.40;95.60;;;;;;5037960;28;20507;-72
2021/06/03 00:34:47;;;;;;;3.27;2.77;;;22.50;94.50;;;;;;5039410;28;20546;-71
2021/06/03 00:37:13;;;;;;;6.50;3.00;;;22.60;94.30;;;;;;5031815;28;20622;-71
2021/06/03 00:39:40;;;;;;;3.20;2.60;;;22.60;94.50;;;;;;5041503;28;20483;-70
2021/06/03 00:42:06;;;;;;;3.70;2.63;;;22.50;95.40;;;;;;5042644;28;20519;-69
2021/06/03 00:44:33;;;;;;;3.30;2.90;;;22.40;95.00;;;;;;5034931;28;20561;-71
2021/06/03 00:47:01;;;;;;;4.13;3.00;;;22.30;96.50;;;;;;5030897;28;20492;-73
2021/06/03 00:49:27;;;;;;;6.77;2.63;;;22.40;95.80;;;;;;5037188;28;20559;-72
2021/06/03 00:51:55;;;;;;;3.23;2.70;;;22.30;96.70;;;;;;5041479;28;20475;-71
2021/06/03 00:54:21;;;;;;;3.83;3.00;;;22.10;96.60;;;;;;5031007;28;21459;-71
2021/06/03 00:56:49;;;;;;;3.17;2.87;;;22.10;97.80;;;;;;5042234;28;20456;-71
2021/06/03 00:59:15;;;;;;;2.43;2.07;;;22.20;97.90;;;;;;5042247;28;20561;-71
2021/06/03 01:01:42;;;;;;;3.10;2.23;;;22.10;99.50;;;;;;5037766;28;20479;-72
2021/06/03 01:04:10;;;;;;;3.40;2.63;;;22.10;99.70;;;;;;5031802;28;20494;-72
2021/06/03 01:06:37;;;;;;;4.83;2.30;;;22.10;98.90;;;;;;5032686;28;20969;-71
2021/06/03 01:09:06;;;;;;;3.13;2.73;;;22.10;99.40;;;;;;5040686;28;20531;-73
2021/06/03 01:11:37;;;;;;;5.20;2.47;;;22.30;99.20;;;;;;5035619;28;20567;-71
2021/06/03 01:14:12;;;;;;;3.50;2.80;;;22.20;99.90;;;;;;5036025;28;20906;-72
2021/06/03 01:16:39;;;;;;;2.90;2.57;;;22.20;99.90;;;;;;5039765;28;20484;-72
2021/06/03 01:19:11;;;;;;;3.17;2.53;;;22.20;99.90;;;;;;5041254;28;20889;-71
2021/06/03 01:21:46;;;;;;;4.80;2.90;;;22.40;99.90;;;;;;5035307;28;20508;-72
2021/06/03 01:24:25;;;;;;;3.43;3.13;;;22.30;99.90;;;;;;5034785;28;20549;-72
2021/06/03 01:26:53;;;;;;;2.97;2.30;;;22.20;99.90;;;;;;5032039;28;20487;-73
2021/06/03 01:29:21;;;;;;;6.60;2.93;;;22.20;99.90;;;;;;5031812;28;20890;-71
2021/06/03 01:31:48;;;;;;;3.27;2.60;;;22.20;99.90;;;;;;5031350;28;20559;-72
2021/06/03 01:34:16;;;;;;;3.93;3.27;;;22.30;99.90;;;;;;5035687;28;20539;-70
2021/06/03 01:36:42;;;;;;;3.97;2.67;;;22.30;99.90;;;;;;5034748;28;20983;-72
2021/06/03 01:39:10;;;;;;;2.33;2.13;;;22.20;99.90;;;;;;5029331;28;20539;-71
2021/06/03 01:41:38;;;;;;;3.87;2.50;;;22.20;99.90;;;;;;5041740;28;20861;-72
2021/06/03 01:44:06;;;;;;;4.87;2.50;;;22.20;99.90;;;;;;5034913;28;20490;-71
2021/06/03 01:46:33;;;;;;;3.40;3.00;;;22.30;99.90;;;;;;5031081;28;21248;-72
2021/06/03 01:49:00;;;;;;;3.17;2.77;;;22.20;99.90;;;;;;5034821;28;20887;-70
2021/06/03 01:51:27;;;;;;;2.80;2.60;;;22.40;99.90;;;;;;5038098;28;21002;-72
2021/06/03 01:53:54;;;;;;;2.63;2.43;;;22.30;99.90;;;;;;5040687;28;20982;-72
2021/06/03 01:56:21;;;;;;;3.60;2.70;;;22.20;99.90;;;;;;5033805;28;21116;-72
2021/06/03 01:58:49;;;;;;;2.67;2.47;;;22.10;99.90;;;;;;5038635;28;20476;-72
2021/06/03 02:01:19;;;;;;;3.10;2.83;;;22.00;99.90;;;;;;5038493;28;20567;-72
2021/06/03 02:03:46;;;;;;;3.93;2.70;;;22.00;99.90;;;;;;5029842;28;21658;-72
2021/06/03 02:06:13;;;;;;;3.40;2.90;;;22.00;99.90;;;;;;5028820;28;20515;-72
2021/06/03 02:08:39;;;;;;;4.13;2.73;;;21.90;99.90;;;;;;5040182;28;20562;-72
2021/06/03 02:11:07;;;;;;;4.30;3.03;;;22.00;99.90;;;;;;5031398;28;20456;-70
2021/06/03 02:13:36;;;;;;;2.80;2.47;;;21.70;99.90;;;;;;5026349;28;20508;-71
2021/06/03 02:16:12;;;;;;;3.43;2.67;;;21.60;99.90;;;;;;5038059;28;20456;-71
2021/06/03 02:18:43;;;;;;;4.37;3.00;;;21.60;99.90;;;;;;5033534;28;20458;-71
2021/06/03 02:21:10;;;;;;;3.60;3.00;;;21.50;99.90;;;;;;5032207;28;20479;-71
2021/06/03 02:23:37;;;;;;;3.23;2.97;;;21.50;99.90;;;;;;5031367;28;20496;-71
2021/06/03 02:26:04;;;;;;;5.07;3.17;;;21.50;99.90;;;;;;5028222;28;20822;-71
2021/06/03 02:28:31;;;;;;;3.20;2.73;;;21.30;99.90;;;;;;5027261;28;20729;-72
2021/06/03 02:30:59;;;;;;;4.27;3.10;;;21.20;99.90;;;;;;5036541;28;20927;-71
2021/06/03 02:33:28;;;;;;;8.50;2.90;;;21.00;99.90;;;;;;5034225;28;20571;-72
2021/06/03 02:35:55;;;;;;;6.40;3.23;;;20.90;99.90;;;;;;5027896;28;20488;-72
2021/06/03 02:38:23;;;;;;;2.80;2.60;;;20.80;99.90;;;;;;5036307;28;20984;-72
2021/06/03 02:40:51;;;;;;;10.00;3.17;;;20.80;99.90;;;;;;5037376;28;20640;-72
2021/06/03 02:43:18;;;;;;;3.60;3.03;;;20.70;99.90;;;;;;5034513;28;20561;-73
2021/06/03 02:45:44;;;;;;;3.83;2.80;;;20.70;99.90;;;;;;5035863;28;20510;-72
2021/06/03 02:48:11;;;;;;;2.70;2.50;;;20.30;99.90;;;;;;5034737;28;20547;-70
2021/06/03 02:50:39;;;;;;;3.40;2.97;;;20.10;99.90;;;;;;5027284;28;20604;-72
2021/06/03 02:53:06;;;;;;;3.50;2.97;;;20.30;99.90;;;;;;5029043;28;20575;-71
2021/06/03 02:55:32;;;;;;;4.10;3.33;;;20.30;99.90;;;;;;5022846;28;20558;-71
2021/06/03 02:57:59;;;;;;;3.67;3.37;;;20.30;99.90;;;;;;5042537;28;21626;-72
2021/06/03 03:00:28;;;;;;;3.77;3.47;;;20.30;99.90;;;;;;5038627;28;20459;-71
2021/06/03 03:02:55;;;;;;;3.60;3.30;;;20.20;99.90;;;;;;5033366;28;20475;-70
2021/06/03 03:05:22;;;;;;;5.50;3.73;;;20.10;99.90;;;;;;5035001;28;20479;-70
2021/06/03 03:07:50;;;;;;;5.53;3.57;;;20.10;99.90;;;;;;5036528;28;20838;-71
2021/06/03 03:10:19;;;;;;;3.93;3.53;;;20.20;99.90;;;;;;5046110;28;20549;-71
2021/06/03 03:12:45;;;;;;;5.50;3.23;;;20.10;99.90;;;;;;5035713;28;20483;-70
2021/06/03 03:15:14;;;;;;;2.97;2.77;;;19.60;99.90;;;;;;5033711;28;20456;-71
2021/06/03 03:17:40;;;;;;;3.53;3.23;;;19.50;99.90;;;;;;5044870;28;20451;-71
2021/06/03 03:20:10;;;;;;;3.53;3.23;;;19.60;99.90;;;;;;5033336;28;20828;-71
2021/06/03 03:22:37;;;;;;;3.70;3.03;;;19.60;99.90;;;;;;5033394;28;20482;-70
2021/06/03 03:25:06;;;;;;;3.63;3.20;;;19.50;99.90;;;;;;5033487;28;20566;-70
2021/06/03 03:27:33;;;;;;;3.40;3.03;;;19.60;99.90;;;;;;5041185;28;20463;-71
2021/06/03 03:29:59;;;;;;;4.33;3.73;;;19.60;99.90;;;;;;5043808;28;20462;-71
2021/06/03 03:32:26;;;;;;;5.13;3.63;;;19.70;99.90;;;;;;5031929;28;20562;-70
2021/06/03 03:34:52;;;;;;;5.20;3.07;;;19.80;99.90;;;;;;5041440;28;20538;-71
2021/06/03 03:37:18;;;;;;;4.13;3.40;;;19.90;99.90;;;;;;5044677;28;20530;-71
2021/06/03 03:39:45;;;;;;;4.20;3.63;;;19.90;99.90;;;;;;5038393;28;20549;-71
2021/06/03 03:42:13;;;;;;;3.83;3.33;;;19.80;99.90;;;;;;5038747;28;20481;-73
2021/06/03 03:44:39;;;;;;;5.00;4.00;;;19.70;99.90;;;;;;5038460;28;20582;-71
2021/06/03 03:47:07;;;;;;;3.90;3.50;;;19.70;99.90;;;;;;5044883;28;20460;-71
2021/06/03 03:49:34;;;;;;;4.50;4.10;;;19.70;99.90;;;;;;5042109;28;20867;-71
2021/06/03 03:52:02;;;;;;;3.50;3.20;;;19.80;99.90;;;;;;5044055;28;20507;-71
2021/06/03 03:54:29;;;;;;;3.80;3.37;;;19.80;99.90;;;;;;5034385;28;20455;-71
2021/06/03 03:56:55;;;;;;;5.90;3.73;;;19.80;99.90;;;;;;5045563;28;20476;-70
2021/06/03 03:59:23;;;;;;;3.57;3.27;;;20.00;99.90;;;;;;5043822;28;20486;-71
2021/06/03 04:01:53;;;;;;;4.60;3.67;;;20.10;99.90;;;;;;5039849;28;20584;-71
2021/06/03 04:04:19;;;;;;;11.83;4.53;;;20.10;99.90;;;;;;5033722;28;20459;-71
2021/06/03 04:06:46;;;;;;;4.30;3.50;;;20.10;99.90;;;;;;5029598;28;20514;-71
2021/06/03 04:09:12;;;;;;;6.60;4.43;;;20.20;99.90;;;;;;5034773;28;20494;-71
2021/06/03 04:11:39;;;;;;;5.30;4.17;;;20.20;99.90;;;;;;5030968;28;20962;-71
2021/06/03 04:14:05;;;;;;;4.80;3.33;;;20.30;99.90;;;;;;5038104;28;20456;-71
2021/06/03 04:16:33;;;;;;;5.87;4.00;;;20.30;99.90;;;;;;5036967;28;20457;-71
2021/06/03 04:19:00;;;;;;;6.63;3.83;;;20.30;99.90;;;;;;5038719;28;21251;-71
2021/06/03 04:21:26;;;;;;;3.60;3.30;;;20.30;99.90;;;;;;5033548;28;21300;-71
2021/06/03 04:23:52;;;;;;;3.43;3.07;;;20.40;99.90;;;;;;5037942;28;21090;-71
2021/06/03 04:26:19;;;;;;;4.00;3.60;;;20.50;99.90;;;;;;5034684;28;21241;-71
2021/06/03 04:28:46;;;;;;;4.03;3.63;;;20.60;99.90;;;;;;5040953;28;20501;-71
2021/06/03 04:31:12;;;;;;;4.90;3.50;;;20.70;99.90;;;;;;5042853;28;20956;-71
2021/06/03 04:33:40;;;;;;;2.90;2.70;;;20.70;99.90;;;;;;5038608;28;20468;-71
2021/06/03 04:36:07;;;;;;;3.07;2.60;;;20.80;99.90;;;;;;5041474;28;20464;-70
2021/06/03 04:38:34;;;;;;;4.30;3.13;;;21.00;99.90;;;;;;5032544;28;20458;-71
2021/06/03 04:41:01;;;;;;;2.53;2.33;;;21.00;99.90;;;;;;5031624;28;20471;-72
2021/06/03 04:43:28;;;;;;;2.87;2.57;;;21.10;99.90;;;;;;5029251;28;20475;-71
2021/06/03 04:45:54;;;;;;;2.03;1.83;;;21.20;99.90;;;;;;5030364;28;20530;-72
2021/06/03 04:48:20;;;;;;;2.60;2.37;;;21.40;99.90;;;;;;5038699;28;20460;-71
2021/06/03 04:50:48;;;;;;;6.63;3.20;;;21.40;99.90;;;;;;5034889;28;20484;-72
2021/06/03 04:53:18;;;;;;;2.57;2.00;;;21.40;99.90;;;;;;5027349;28;20566;-71
2021/06/03 04:55:44;;;;;;;2.90;2.67;;;21.40;99.90;;;;;;5035055;28;20464;-72
2021/06/03 04:58:11;;;;;;;2.83;2.43;;;21.50;99.90;;;;;;5039664;28;20550;-72
2021/06/03 05:00:40;;;;;;;2.70;2.50;;;21.50;99.90;;;;;;5041355;28;20463;-71
2021/06/03 05:03:08;;;;;;;2.73;2.30;;;21.60;99.90;;;;;;5033212;28;20533;-72
2021/06/03 05:05:35;;;;;;;3.50;2.33;;;21.70;99.90;;;;;;5031585;28;20549;-72
2021/06/03 05:08:03;;;;;;;5.80;2.73;;;21.70;99.90;;;;;;5036344;28;20509;-71
2021/06/03 05:10:30;;;;;;;2.30;2.10;;;21.90;99.90;;;;;;5027294;28;20478;-71
2021/06/03 05:12:58;;;;;;;3.03;2.43;;;21.80;99.90;;;;;;5030872;28;20531;-72
2021/06/03 05:15:25;;;;;;;3.10;2.07;;;22.20;99.90;;;;;;5036455;28;20829;-71
2021/06/03 05:17:54;;;;;;;2.83;1.70;;;22.60;99.90;;;;;;5034294;28;20957;-71
2021/06/03 05:20:21;;;;;;;5.13;2.27;;;22.70;99.90;;;;;;5027531;28;20455;-70
2021/06/03 05:22:50;;;;;;;2.83;1.90;;;22.60;99.90;;;;;;5033786;28;25457;-69
2021/06/03 05:25:23;;;;;;;5.23;3.87;;;22.70;99.90;;;;;;5035541;28;20817;-71
2021/06/03 05:27:50;;;;;;;2.70;2.27;;;22.50;99.90;;;;;;5038596;28;20538;-72
2021/06/03 05:30:18;;;;;;;2.57;1.97;;;22.50;99.90;;;;;;5038842;28;20524;-71
2021/06/03 05:32:45;;;;;;;2.33;2.13;;;22.50;99.90;;;;;;5033872;28;20483;-71
2021/06/03 05:35:15;;;;;;;2.67;2.47;;;22.40;99.90;;;;;;5031496;28;20492;-71
2021/06/03 05:37:42;;;;;;;2.27;2.07;;;22.30;99.90;;;;;;5041296;28;20584;-71
2021/06/03 05:40:10;;;;;;;2.33;1.87;;;22.20;99.90;;;;;;5030119;28;20922;-70
2021/06/03 05:42:38;;;;;;;2.17;1.93;;;22.20;99.90;;;;;;5031483;28;20483;-71
2021/06/03 05:45:08;;;;;;;2.67;2.40;;;22.50;99.90;;;;;;5034553;28;20990;-71
2021/06/03 05:47:34;;;;;;;4.47;2.10;;;22.80;99.90;;;;;;5034547;28;20948;-71
2021/06/03 05:50:01;;;;;;;2.87;2.40;;;23.30;99.90;;;;;;5030766;28;20558;-71
2021/06/03 05:52:28;;;;;;;2.20;2.00;;;23.90;99.90;;;;;;5034852;28;20499;-71
2021/06/03 05:54:54;;;;;;;4.50;2.33;;;24.30;99.90;;;;;;5031311;28;20613;-71
2021/06/03 05:57:21;;;;;;;2.50;2.17;;;24.40;99.90;;;;;;5031262;28;20486;-71
2021/06/03 05:59:49;;;;;;;4.63;2.43;;;24.60;99.90;;;;;;5035951;28;20499;-70
2021/06/03 06:02:20;;;;;;;2.10;1.90;;;24.70;99.90;;;;;;5035032;28;20522;-71
2021/06/03 06:07:32;;;;;;;2.40;2.20;;;24.80;99.90;;;;;;5042402;28;21036;-71
2021/06/03 06:09:59;;;;;;;2.27;2.07;;;24.50;99.90;;;;;;5036604;28;20467;-71
2021/06/03 06:12:25;;;;;;;3.07;2.53;;;24.60;99.90;;;;;;5032081;28;20576;-71
2021/06/03 06:14:53;;;;;;;3.70;2.33;;;24.60;99.90;;;;;;5031935;28;20516;-72
2021/06/03 06:17:19;;;;;;;3.63;2.33;;;24.80;99.90;;;;;;5041167;28;20908;-72
2021/06/03 06:19:46;;;;;;;2.27;2.00;;;24.80;99.90;;;;;;5034619;28;20491;-72
2021/06/03 06:22:12;;;;;;;2.97;2.63;;;25.00;99.90;;;;;;5043548;28;20568;-73
2021/06/03 06:24:39;;;;;;;2.50;2.30;;;25.30;99.90;;;;;;5031915;28;20499;-72
2021/06/03 06:27:06;;;;;;;3.20;2.27;;;25.30;99.90;;;;;;5036653;28;21076;-72
2021/06/03 06:29:33;;;;;;;2.33;2.13;;;25.30;99.90;;;;;;5032933;28;20463;-72
2021/06/03 06:32:00;;;;;;;2.50;2.20;;;25.30;99.90;;;;;;5023548;28;20630;-71
2021/06/03 06:34:27;;;;;;;3.27;2.97;;;25.60;99.90;;;;;;5023529;28;20999;-71
2021/06/03 06:36:53;;;;;;;3.00;2.20;;;25.80;99.90;;;;;;5027645;28;20536;-72
2021/06/03 06:39:20;;;;;;;4.70;2.37;;;26.50;99.90;;;;;;5034900;28;20989;-72
2021/06/03 06:41:47;;;;;;;6.53;1.90;;;27.20;99.90;;;;;;5038486;28;20873;-71
2021/06/03 06:44:14;;;;;;;4.83;2.03;;;27.60;99.90;;;;;;5015719;28;20548;-72
2021/06/03 06:46:40;;;;;;;3.40;2.90;;;27.90;99.90;;;;;;5027642;28;20487;-73
2021/06/03 06:49:08;;;;;;;3.10;2.70;;;27.90;99.90;;;;;;5028902;28;20483;-72
2021/06/03 06:51:35;;;;;;;2.67;2.47;;;27.50;99.90;;;;;;5023979;28;21062;-72
2021/06/03 06:54:01;;;;;;;5.97;3.00;;;27.30;99.90;;;;;;5030713;28;20548;-73
2021/06/03 06:56:28;;;;;;;2.40;2.20;;;27.10;99.90;;;;;;5024295;28;20469;-71
2021/06/03 06:58:54;;;;;;;5.83;2.10;;;27.40;99.90;;;;;;5024177;28;20533;-73
2021/06/03 07:01:21;;;;;;;2.60;2.17;;;27.20;99.90;;;;;;5021722;28;20552;-71
2021/06/03 07:03:47;;;;;;;3.17;2.87;;;27.10;99.90;;;;;;5027482;28;20464;-72
2021/06/03 07:06:15;;;;;;;3.60;2.80;;;26.60;99.90;;;;;;5020324;28;20540;-72
2021/06/03 07:08:41;;;;;;;4.50;3.27;;;26.80;99.90;;;;;;5026115;28;20586;-72
2021/06/03 07:11:08;;;;;;;4.67;3.00;;;27.10;99.90;;;;;;5031460;28;20986;-71
2021/06/03 07:13:34;;;;;;;3.17;2.80;;;27.50;99.90;;;;;;5024755;28;20499;-74
2021/06/03 07:16:01;;;;;;;5.10;2.90;;;27.90;99.90;;;;;;5025479;28;20555;-72
2021/06/03 07:18:27;;;;;;;4.20;2.90;;;28.00;99.90;;;;;;5017962;28;20460;-72
2021/06/03 07:20:54;;;;;;;5.10;2.70;;;28.00;99.90;;;;;;5022600;28;20538;-72
2021/06/03 07:23:22;;;;;;;3.87;2.30;;;28.10;99.90;;;;;;5017898;28;21066;-72
2021/06/03 07:25:48;;;;;;;4.03;3.00;;;27.80;99.90;;;;;;5014676;28;21006;-71
2021/06/03 07:28:15;;;;;;;4.07;3.33;;;27.70;99.90;;;;;;5014721;28;20468;-72
2021/06/03 07:30:42;;;;;;;2.60;2.40;;;27.90;99.90;;;;;;5017364;28;20520;-72
2021/06/03 07:33:08;;;;;;;3.47;3.17;;;27.90;99.90;;;;;;5021497;28;21408;-70
2021/06/03 07:35:36;;;;;;;5.53;3.37;;;28.20;99.90;;;;;;5021446;28;21049;-68
2021/06/03 07:38:03;;;;;;;3.80;2.47;;;28.40;99.90;;;;;;5015725;28;20457;-70
2021/06/03 07:40:33;;;;;;;2.87;2.40;;;28.10;99.90;;;;;;5031108;28;20464;-72
2021/06/03 07:43:00;;;;;;;3.17;2.50;;;28.10;99.90;;;;;;5029079;28;20483;-72
2021/06/03 07:45:28;;;;;;;3.50;2.67;;;28.80;99.90;;;;;;5026520;28;20907;-70
2021/06/03 07:47:56;;;;;;;3.83;2.90;;;29.20;99.90;;;;;;5031965;28;20459;-71
2021/06/03 07:50:23;;;;;;;4.87;3.83;;;29.30;99.90;;;;;;5027490;28;20475;-71
2021/06/03 07:52:50;;;;;;;3.47;3.17;;;29.70;99.90;;;;;;5024569;28;20544;-72
2021/06/03 07:55:18;;;;;;;3.80;2.50;;;29.20;99.90;;;;;;5029899;28;20463;-73
2021/06/03 07:57:49;;;;;;;4.60;2.50;;;29.60;99.90;;;;;;5026092;28;20903;-73
2021/06/03 08:00:19;;;;;;;3.33;2.63;;;29.90;99.90;;;;;;5026931;28;20891;-72
2021/06/03 08:02:46;;;;;;;4.83;3.27;;;30.10;99.90;;;;;;5024686;28;20835;-72
2021/06/03 08:05:15;;;;;;;4.90;3.50;;;30.70;99.90;;;;;;5033569;28;20578;-73
2021/06/03 08:07:41;;;;;;;6.70;3.90;;;30.80;99.90;;;;;;5027921;28;20523;-72
2021/06/03 08:10:10;;;;;;;4.87;3.67;;;31.20;99.90;;;;;;5029268;28;20586;-71
2021/06/03 08:12:37;;;;;;;6.43;2.83;;;30.60;99.90;;;;;;5030462;28;20536;-71
2021/06/03 08:15:08;;;;;;;4.47;2.97;;;30.30;99.90;;;;;;5031486;28;20532;-72
2021/06/03 08:17:34;;;;;;;2.80;2.60;;;30.90;99.90;;;;;;5028848;28;20441;-72
2021/06/03 08:20:01;;;;;;;4.00;3.33;;;31.30;99.90;;;;;;5035227;28;20960;-72
2021/06/03 08:22:28;;;;;;;3.40;2.87;;;31.40;99.90;;;;;;5026146;28;20487;-71
2021/06/03 08:24:54;;;;;;;6.13;3.30;;;31.80;99.90;;;;;;5023617;28;20502;-72
2021/06/03 08:27:21;;;;;;;2.50;2.30;;;31.30;99.90;;;;;;5025650;28;20554;-72
2021/06/03 08:29:47;;;;;;;6.60;3.00;;;31.80;99.90;;;;;;5028575;28;20463;-72
2021/06/03 08:32:15;;;;;;;3.17;2.87;;;31.20;99.90;;;;;;5033564;28;20483;-71
2021/06/03 08:34:42;;;;;;;3.57;3.27;;;31.00;99.90;;;;;;5028305;28;20471;-69
2021/06/03 08:37:08;;;;;;;4.00;3.30;;;31.20;99.90;;;;;;5038524;28;20607;-72
2021/06/03 08:39:35;;;;;;;4.83;3.40;;;31.00;99.90;;;;;;5035464;28;20496;-71
2021/06/03 08:42:02;;;;;;;4.03;3.20;;;30.50;99.90;;;;;;5032203;28;20582;-71
2021/06/03 08:44:28;;;;;;;3.30;2.97;;;29.80;99.90;;;;;;5031568;28;20452;-72
2021/06/03 08:46:55;;;;;;;3.77;3.47;;;29.50;99.90;;;;;;5035292;28;20487;-71
2021/06/03 08:49:23;;;;;;;6.73;3.60;;;29.40;99.90;;;;;;5033395;28;21124;-71
2021/06/03 08:51:51;;;;;;;6.20;3.30;;;30.30;99.90;;;;;;5033068;28;20570;-71
2021/06/03 08:54:18;;;;;;;5.13;3.03;;;31.20;99.90;;;;;;5028067;28;20546;-70
2021/06/03 08:56:45;;;;;;;3.40;2.50;;;32.20;99.90;;;;;;5025310;28;20474;-72
2021/06/03 08:59:12;;;;;;;7.97;3.30;;;32.40;99.90;;;;;;5028568;28;20494;-73
2021/06/03 09:01:40;;;;;;;5.60;3.20;;;31.80;99.90;;;;;;5024726;28;20475;-73
2021/06/03 09:04:06;;;;;;;4.50;4.10;;;31.00;99.90;;;;;;5037283;28;20968;-72
2021/06/03 09:06:34;;;;;;;5.83;5.33;;;30.50;99.90;;;;;;5034415;28;20482;-72
2021/06/03 09:09:01;;;;;;;5.93;3.50;;;30.30;99.90;;;;;;5032894;28;20499;-72
2021/06/03 09:11:29;;;;;;;5.47;2.93;;;30.30;99.90;;;;;;5038323;28;20467;-71
2021/06/03 09:13:58;;;;;;;5.30;4.03;;;30.10;99.90;;;;;;5037664;28;20510;-71
2021/06/03 09:16:26;;;;;;;4.17;3.77;;;29.50;99.90;;;;;;5031690;28;20525;-72
2021/06/03 09:18:54;;;;;;;3.77;3.07;;;29.30;99.90;;;;;;5023639;28;21003;-72
2021/06/03 09:21:23;;;;;;;3.23;2.50;;;28.70;99.90;;;;;;5030503;28;20464;-71
2021/06/03 09:23:56;;;;;;;4.10;3.70;;;28.40;99.90;;;;;;5028516;28;22108;-71
2021/06/03 09:26:24;;;;;;;4.73;3.67;;;28.20;99.90;;;;;;5031867;28;20463;-71
2021/06/03 09:28:52;;;;;;;4.40;2.90;;;28.30;99.90;;;;;;5028281;28;20474;-72
2021/06/03 09:31:21;;;;;;;4.20;3.30;;;28.30;99.90;;;;;;5025361;28;20543;-70
2021/06/03 09:34:03;;;;;;;3.30;3.00;;;28.10;99.90;;;;;;5027811;28;20984;-71
2021/06/03 09:36:40;;;;;;;4.63;3.23;;;28.00;99.90;;;;;;5026782;28;20449;-72
2021/06/03 09:39:23;;;;;;;3.23;3.03;;;27.70;99.90;;;;;;5030746;28;20681;-71
2021/06/03 09:41:53;;;;;;;3.80;3.50;;;27.50;99.90;;;;;;5024905;28;20538;-72
2021/06/03 09:44:25;;;;;;;4.20;3.23;;;27.50;99.90;;;;;;5035336;28;20451;-73
2021/06/03 09:46:54;;;;;;;8.60;4.03;;;27.50;99.90;;;;;;5038391;28;20515;-71
2021/06/03 09:49:26;;;;;;;3.30;3.00;;;27.70;99.90;;;;;;5030684;28;20468;-72
2021/06/03 09:51:55;;;;;;;3.57;3.27;;;27.60;99.90;;;;;;5026171;28;20786;-72
2021/06/03 09:54:24;;;;;;;4.80;3.50;;;27.60;99.90;;;;;;5031377;28;20502;-73
2021/06/03 09:56:53;;;;;;;3.20;2.90;;;27.60;99.90;;;;;;5032938;28;20551;-72
2021/06/03 09:59:22;;;;;;;3.70;3.40;;;27.60;99.90;;;;;;5026853;28;20466;-73
2021/06/03 10:01:55;;;;;;;3.83;3.53;;;27.90;99.90;;;;;;5040576;28;20484;-72
2021/06/03 10:04:34;;;;;;;8.20;3.60;;;28.30;99.90;;;;;;5035079;28;20952;-72
2021/06/03 10:07:07;;;;;;;3.10;2.80;;;28.50;99.90;;;;;;5032093;28;21016;-72
2021/06/03 10:09:40;;;;;;;3.30;2.30;;;29.10;99.90;;;;;;5028300;28;20585;-71
2021/06/03 10:12:09;;;;;;;3.83;3.33;;;29.70;99.90;;;;;;5018556;28;20476;-71
2021/06/03 10:14:37;;;;;;;5.13;3.07;;;30.00;99.90;;;;;;5018944;28;20506;-71
2021/06/03 10:17:17;;;;;;;5.07;3.33;;;29.70;99.90;;;;;;5030224;28;20551;-72
2021/06/03 10:19:45;;;;;;;4.43;3.47;;;29.60;99.90;;;;;;5024630;28;20492;-72
2021/06/03 10:22:18;;;;;;;3.10;2.50;;;29.80;99.90;;;;;;5022870;28;20479;-69
2021/06/03 10:25:04;;;;;;;5.53;3.03;;;29.50;99.90;;;;;;5025500;28;21140;-71
2021/06/03 10:27:33;;;;;;;5.83;3.10;;;28.90;99.90;;;;;;5031536;28;20472;-71
2021/06/03 10:30:01;;;;;;;3.47;2.77;;;28.60;99.90;;;;;;5022497;28;20498;-72
2021/06/03 10:32:31;;;;;;;4.30;3.70;;;28.10;99.90;;;;;;5035000;28;20986;-71
2021/06/03 10:34:58;;;;;;;5.20;3.40;;;27.90;99.90;;;;;;5025622;28;20460;-71
2021/06/03 10:37:26;;;;;;;5.13;4.40;;;27.90;99.90;;;;;;5028653;28;20484;-73
2021/06/03 10:39:55;;;;;;;10.13;4.20;;;28.00;99.90;;;;;;5024784;28;20490;-72
2021/06/03 10:42:24;;;;;;;4.07;3.50;;;28.70;99.90;;;;;;5026211;28;20510;-73
2021/06/03 10:44:51;;;;;;;4.30;3.30;;;29.60;99.90;;;;;;5024144;28;20452;-72
2021/06/03 10:47:18;;;;;;;4.00;3.50;;;31.10;99.90;;;;;;5030139;28;20568;-74
2021/06/03 10:49:46;;;;;;;4.27;3.63;;;32.90;99.90;;;;;;5028647;28;20460;-72
2021/06/03 10:52:15;;;;;;;4.20;3.63;;;33.20;99.90;;;;;;5028441;28;21072;-71
2021/06/03 10:54:44;;;;;;;6.60;3.67;;;33.40;99.90;;;;;;5025516;28;20460;-71
2021/06/03 10:57:12;;;;;;;3.90;3.50;;;33.10;99.90;;;;;;5029832;28;20510;-71
2021/06/03 10:59:41;;;;;;;5.00;3.17;;;32.60;99.90;;;;;;5033174;28;20460;-70
2021/06/03 11:02:08;;;;;;;4.13;3.00;;;32.80;99.90;;;;;;5026839;28;20818;-72
2021/06/03 11:04:38;;;;;;;7.43;4.20;;;32.30;99.90;;;;;;5034033;28;20581;-72
2021/06/03 11:07:06;;;;;;;3.50;3.07;;;32.10;99.90;;;;;;5029682;28;20485;-72
2021/06/03 11:09:35;;;;;;;5.57;3.37;;;32.70;99.90;;;;;;5029323;28;20459;-72
2021/06/03 11:12:11;;;;;;;8.23;4.23;;;33.40;99.90;;;;;;5031519;28;20528;-71
2021/06/03 11:15:08;;;;;;;3.47;3.17;;;33.50;99.40;;;;;;5022634;28;20890;-71
2021/06/03 11:17:55;;;;;;;5.10;3.97;;;32.30;99.90;;;;;;4997710;28;20471;-71
2021/06/03 11:20:42;;;;;;;3.90;3.50;;;31.40;99.90;;;;;;5027795;28;20452;-71
2021/06/03 11:23:46;;;;;;;10.07;3.67;;;30.50;99.90;;;;;;5016262;28;20482;-71
2021/06/03 11:26:46;;;;;;;4.90;3.30;;;29.80;99.90;;;;;;5027535;28;20549;-71
2021/06/03 11:29:14;;;;;;;6.73;4.37;;;29.90;99.90;;;;;;5022410;28;20465;-71
2021/06/03 11:31:44;;;;;;;5.00;3.87;;;30.80;99.90;;;;;;5036018;28;20562;-69
2021/06/03 11:34:14;;;;;;;3.57;3.27;;;30.90;99.90;;;;;;5034462;28;21784;-71
2021/06/03 11:36:42;;;;;;;4.20;3.43;;;30.40;99.90;;;;;;5032786;28;20456;-70
2021/06/03 11:39:36;;;;;;;3.90;3.30;;;29.90;99.90;;;;;;5029787;28;20925;-72
2021/06/03 11:42:36;;;;;;;5.67;3.63;;;29.60;99.90;;;;;;5036398;28;20496;-72
2021/06/03 11:45:13;;;;;;;3.63;3.33;;;29.60;99.90;;;;;;5031874;28;20460;-72
2021/06/03 11:48:05;;;;;;;4.50;3.70;;;29.50;99.90;;;;;;5036299;28;20487;-71
2021/06/03 11:50:38;;;;;;;8.57;3.90;;;29.60;99.90;;;;;;5033071;28;20455;-71
2021/06/03 11:53:10;;;;;;;4.03;3.63;;;29.70;99.90;;;;;;5026266;28;21078;-71
2021/06/03 11:55:38;;;;;;;3.00;2.77;;;29.50;99.90;;;;;;5027280;28;21103;-72
2021/06/03 11:58:15;;;;;;;5.50;4.03;;;29.80;99.90;;;;;;5034305;28;20945;-71
2021/06/03 12:00:43;;;;;;;5.53;3.43;;;29.70;99.90;;;;;;5039502;28;20462;-70
2021/06/03 12:03:32;;;;;;;3.37;3.07;;;30.00;99.90;;;;;;5039003;28;20484;-71
2021/06/03 12:05:59;;;;;;;3.27;2.90;;;30.00;99.90;;;;;;5029255;28;20533;-72
2021/06/03 12:08:56;;;;;;;5.33;3.43;;;29.80;99.90;;;;;;5029667;28;20472;-72
2021/06/03 12:11:42;;;;;;;5.10;3.40;;;29.20;99.90;;;;;;5031654;28;20467;-71
2021/06/03 12:14:10;;;;;;;3.00;2.70;;;29.00;99.90;;;;;;5029919;28;20475;-72
2021/06/03 12:16:39;;;;;;;5.43;3.30;;;29.30;99.90;;;;;;5032732;28;20495;-71
2021/06/03 12:19:11;;;;;;;3.90;2.60;;;29.60;99.90;;;;;;5030758;28;20795;-71
2021/06/03 12:21:38;;;;;;;2.80;2.60;;;29.70;99.90;;;;;;5033308;28;20518;-72
2021/06/03 12:24:05;;;;;;;4.77;3.87;;;29.40;99.90;;;;;;5040889;28;20551;-71
2021/06/03 12:26:37;;;;;;;4.20;3.80;;;29.20;99.90;;;;;;5028927;28;20476;-71
2021/06/03 12:29:03;;;;;;;4.00;3.10;;;29.40;99.90;;;;;;5031346;28;20475;-71
2021/06/03 12:31:30;;;;;;;3.63;3.33;;;29.80;99.90;;;;;;5030492;28;20456;-71
2021/06/03 12:33:58;;;;;;;2.10;1.87;;;30.00;99.90;;;;;;5035832;28;22221;-71
2021/06/03 12:36:26;;;;;;;2.50;2.30;;;30.60;99.90;;;;;;5036697;28;21854;-72
2021/06/03 12:38:56;;;;;;;2.97;2.70;;;31.00;99.90;;;;;;5046430;28;20452;-71
2021/06/03 12:41:26;;;;;;;8.10;3.10;;;31.10;99.20;;;;;;5039346;28;20499;-72
2021/06/03 12:43:57;;;;;;;2.77;2.47;;;30.70;96.70;;;;;;5038240;28;20505;-71
2021/06/03 12:46:32;;;;;;;3.40;2.27;;;30.40;96.70;;;;;;5038905;28;20519;-71
2021/06/03 12:49:06;;;;;;;2.37;1.83;;;30.30;96.90;;;;;;5039455;28;20466;-71
2021/06/03 12:51:35;;;;;;;2.63;2.30;;;30.10;96.70;;;;;;5048027;28;20435;-71
2021/06/03 12:54:02;;;;;;;2.80;2.50;;;30.10;97.70;;;;;;5042502;28;20467;-70
2021/06/03 12:56:31;;;;;;;3.77;2.60;;;30.30;97.70;;;;;;5047120;28;20462;-71